Tiempo atmosférico en la estación meteorológica de Adeje, Santa Cruz de Tenerife (130 m.)



Fecha
DESCASC
Temp. máxima en grados centígrados (hora)
DESCASC
Temp. mínima en grados centígrados (hora)
DESCASC
Temp. media en grados centígrados
DESCASC
Racha de viento máxima en m/sg (hora)
DESCASC
Velocidad máxima media en intervalos de 10 minutos(hora)
DESCASC
Precipitaciones diarias en mm
DESCASC
Precipitaciones de 00:00 a 06:00 en mm
DESCASC
Precipitaciones de 06:00 a 12:00 en mm
DESCASC
Precipitaciones de 12:00 a 18:00 en mm
DESCASC
Precipitaciones de 18:00 a 24:00 en mm
DESCASC
19-02-2019 20.7 (13:30) 14.9 (04:40) 17.8 6.11 (14:50) 3.06 (15:30) 0 0 0 0 0
18-02-2019 22.3 (13:30) 14.1 (08:10) 18.2 7.78 (12:40) 3.61 (13:30) 0 0 0 0 0
17-02-2019 22.9 (15:00) 12.7 (00:00) 17.8 4.72 (13:00) 2.78 (15:20) 0 0 0 0 0
16-02-2019 22.1 (14:10) 12.8 (00:00) 17.5 6.11 (14:00) 3.33 (15:20) 0 0 0 0 0
15-02-2019 20.8 (14:20) 15.2 (00:00) 18 14.17 (18:10) 6.39 (13:20) 0 0 0 0 0
14-02-2019 26.8 (14:00) 17.7 (00:00) 22.3 11.11 (12:10) 5 (07:40) 0 0 0 0 0
13-02-2019 29 (13:10) 17.3 (00:00) 23.1 9.17 (10:50) 3.89 (22:00) 0 0 0 0 0
12-02-2019 28.4 (14:50) 17.2 (00:00) 22.8 6.39 (04:40) 2.5 (04:50) 0 0 0 0 0
11-02-2019 29.1 (14:30) 14.7 (00:00) 21.9 10.83 (05:10) 4.72 (03:50) 0 0 0 0 0
10-02-2019 25.7 (15:50) 12 (00:00) 18.9 6.94 (16:10) 3.33 (16:10) 0 0 0 0 0
09-02-2019 22.9 (15:30) 12.1 (00:00) 17.5 4.44 (13:50) 2.5 (13:40) 0 0 0 0 0
08-02-2019 21.5 (15:30) 11.6 (00:00) 16.6 5.83 (15:00) 2.78 (13:50) 0 0 0 0 0
07-02-2019 22.9 (13:50) 12 (00:00) 17.4 5 (13:40) 2.78 (12:50) 0 0 0 0 0
06-02-2019 24.7 (12:40) 13.4 (07:50) 19.1 6.39 (12:50) 3.06 (12:50) 0 0 0 0 0
05-02-2019 23.1 (13:20) 15.8 (22:40) 19.5 12.5 (12:40) 4.44 (12:10) 0 0 0 0 0
04-02-2019 22.8 (23:40) 13 (00:00) 17.9 8.06 (22:10) 2.78 (22:10) 0 0 0 0 0
03-02-2019 21.2 (13:50) 13.4 (00:00) 17.3 6.39 (14:00) 3.33 (14:00) 0 0 0 0 0
02-02-2019 21.4 (16:30) 14.6 (00:00) 18 5.28 (16:00) 2.78 (16:00) 0 0 0 0 0
01-02-2019 21.2 (14:50) 14.8 (00:00) 18 8.06 (19:10) 3.89 (19:20) 0 0 0 0 0
31-01-2019 19.8 (14:50) 15.6 (00:00) 17.7 6.67 (17:50) 3.33 (17:50) 0 0 0 0 0
30-01-2019 20.7 (11:20) 14.5 (00:00) 17.6 5.56 (12:30) 3.06 (12:00) 0 0 0 0 0
29-01-2019 21.6 (16:00) 13.3 (00:00) 17.5 6.67 (15:00) 3.89 (15:00) 0 0 0 0 0
28-01-2019 21.8 (13:30) 14.5 (00:00) 18.1 6.11 (14:50) 3.06 (15:10) 0 0 0 0 0
27-01-2019 21.1 (15:50) 14.6 (00:00) 17.9 6.11 (16:50) 3.06 (12:50) 0 0 0 0 0
26-01-2019 20.6 (11:10) 13 (00:00) 16.8 4.72 (16:10) 2.22 (16:10) 0 0 0 0 0
25-01-2019 22.1 (13:20) 14.6 (00:00) 18.4 5.28 (15:10) 2.78 (16:00) 0 0 0 0 0
24-01-2019 21 (17:20) 14.1 (00:00) 17.6 6.11 (16:20) 3.33 (16:00) 0 0 0 0 0

Gráficas

Temp. máximas Temp. mínimas Temp. medias Precipitaciones Rachas de viento máximas Velocidades máximas media en intervalos de 10 minutos

Datos horarios

Fecha y hora oficial Temperatura (ºC) Velocidad del viento (km/h) Dirección del viento Racha (km/h) Dirección de racha Precipitación (mm) Presión (hPa) Tendencia (hPa) Humedad (%)
2019-02-22 23:00:00 21.8 6 Sur 15 Este 0 -- -- 16
2019-02-22 22:00:00 24.2 6 Este 20 Nordeste 0 -- -- 11
2019-02-22 21:00:00 23.2 6 Nordeste 17 Nordeste 0 -- -- 13
2019-02-22 20:00:00 23.3 4 Sudeste 23 Nordeste 0 -- -- 14
2019-02-22 19:00:00 23.8 5 Este 17 Nordeste 0 -- -- 16
2019-02-22 18:00:00 24.9 9 Nordeste 22 Nordeste 0 -- -- 18
2019-02-22 17:00:00 25.6 13 Este 27 Este 0 -- -- 20
2019-02-22 16:00:00 26.4 12 Nordeste 32 Nordeste 0 -- -- 19
2019-02-22 15:00:00 26.5 12 Nordeste 34 Nordeste 0 -- -- 19
2019-02-22 14:00:00 26.7 11 Norte 37 Norte 0 -- -- 18
2019-02-22 13:00:00 27 11 Norte 33 Nordeste 0 -- -- 15
2019-02-22 12:00:00 27.2 10 Nordeste 37 Este 0 -- -- 13
2019-02-22 11:00:00 26.8 9 Nordeste 37 Nordeste 0 -- -- 13
2019-02-22 10:00:00 25.8 12 Este 33 Nordeste 0 -- -- 13
2019-02-22 09:00:00 24.1 15 Nordeste 31 Nordeste 0 -- -- 14
2019-02-22 08:00:00 17.8 4 Norte 11 Sur 0 -- -- 39
2019-02-22 07:00:00 18.9 10 Sur 27 Nordeste 0 -- -- 45
2019-02-22 06:00:00 23.6 10 Nordeste 31 Nordeste 0 -- -- 14
2019-02-22 05:00:00 23.9 12 Nordeste 32 Nordeste 0 -- -- 14
2019-02-22 04:00:00 23.9 14 Nordeste 33 Norte 0 -- -- 14
2019-02-22 03:00:00 23.4 12 Nordeste 28 Nordeste 0 -- -- 15
2019-02-22 02:00:00 22.7 4 Este 20 Nordeste 0 -- -- 15
2019-02-22 01:00:00 21.6 6 Este 19 Este 0 -- -- 16
2019-02-22 00:00:00 21.5 12 Nordeste 23 Nordeste 0 -- -- 17
2019-02-21 23:00:00 21.1 12 Nordeste 23 Nordeste 0 -- -- 18
2019-02-21 22:00:00 21 11 Nordeste 22 Este 0 -- -- 21
2019-02-21 21:00:00 20.7 8 Nordeste 26 Nordeste 0 -- -- 24
2019-02-21 20:00:00 20.4 8 Nordeste 23 Este 0 -- -- 32
2019-02-21 19:00:00 21.1 7 Este 23 Nordeste 0 -- -- 33
2019-02-21 18:00:00 22.3 9 Este 26 Norte 0 -- -- 33
2019-02-21 17:00:00 22.8 8 Este 22 Nordeste 0 -- -- 35
2019-02-21 16:00:00 22.9 9 Nordeste 24 Nordeste 0 -- -- 38
2019-02-21 15:00:00 22.9 8 Noroeste 22 Nordeste 0 -- -- 44
2019-02-21 14:00:00 22.6 9 Oeste 21 Oeste 0 -- -- 50
2019-02-21 13:00:00 21.7 8 Nordeste 31 Nordeste 0 -- -- 52
2019-02-21 12:00:00 20.7 10 Este 26 Sudeste 0 -- -- 49
2019-02-21 11:00:00 20.3 7 Nordeste 16 Este 0 -- -- 44
2019-02-21 10:00:00 18.2 5 Este 14 Este 0 -- -- 47
2019-02-21 09:00:00 14.6 0 Calma 9 Este 0 -- -- 52
2019-02-21 08:00:00 14 8 Este 12 Este 0 -- -- 46
2019-02-21 07:00:00 12.3 2 Este 6 Nordeste 0 -- -- 60
2019-02-21 06:00:00 13 2 Este 4 Este 0 -- -- 58
2019-02-21 05:00:00 13.2 2 Este 7 Este 0 -- -- 60
2019-02-21 04:00:00 13.5 3 Sudeste 7 Sudeste 0 -- -- 62
2019-02-21 03:00:00 13.7 0 Calma 19 Nordeste 0 -- -- 60
2019-02-21 02:00:00 14.3 4 Nordeste 10 Este 0 -- -- 61
2019-02-21 01:00:00 14.2 4 Este 8 Nordeste 0 -- -- 57
2019-02-21 00:00:00 14.2 2 Este 7 Este 0 -- -- 58
2019-02-20 23:00:00 14.5 2 Norte 6 Nordeste 0 -- -- 62
2019-02-20 22:00:00 14.7 0 Calma 6 Nordeste 0 -- -- 58
2019-02-20 21:00:00 15.1 3 Este 6 Nordeste 0 -- -- 58
2019-02-20 20:00:00 15.1 0 Calma 12 Sudoeste 0 -- -- 58
2019-02-20 19:00:00 16.7 8 Sudoeste 17 Sudoeste 0 -- -- 54
2019-02-20 18:00:00 17.9 6 Sudoeste 16 Oeste 0 -- -- 51
2019-02-20 17:00:00 18.7 9 Oeste 21 Oeste 0 -- -- 49
2019-02-20 16:00:00 18.8 12 Sudoeste 26 Oeste 0 -- -- 49
2019-02-20 15:00:00 19 9 Oeste 19 Oeste 0 -- -- 47
2019-02-20 14:00:00 19.4 4 Sudeste 19 Sur 0 -- -- 45
2019-02-20 13:00:00 20.5 10 Oeste 22 Sudoeste 0 -- -- 42
2019-02-20 12:00:00 19.2 9 Oeste 19 Oeste 0 -- -- 45
2019-02-20 11:00:00 19.3 8 Noroeste 17 Oeste 0 -- -- 43
2019-02-20 10:00:00 18.1 8 Sudoeste 19 Sur 0 -- -- 46
2019-02-20 09:00:00 16.4 9 Nordeste 18 Este 0 -- -- 49
2019-02-20 08:00:00 15.6 4 Nordeste 15 Nordeste 0 -- -- 52
2019-02-20 07:00:00 15.6 5 Nordeste 13 Este 0 -- -- 50
2019-02-20 06:00:00 15.8 4 Nordeste 10 Norte 0 -- -- 56
2019-02-20 05:00:00 15.4 3 Noroeste 10 Norte 0 -- -- 58
2019-02-20 04:00:00 15.5 0 Calma 8 Nordeste 0 -- -- 57
2019-02-20 03:00:00 15.7 3 Este 10 Norte 0 -- -- 51
2019-02-20 02:00:00 15.9 6 Nordeste 14 Nordeste 0 -- -- 51
2019-02-20 01:00:00 16 4 Este 14 Sur 0 -- -- 56
2019-02-20 00:00:00 16 5 Sudoeste 15 Sudoeste 0 -- -- 55
2019-02-19 23:00:00 15.4 0 Calma 11 Nordeste 0 -- -- 55
2019-02-19 22:00:00 16.3 4 Nordeste 18 Este 0 -- -- 53
2019-02-19 21:00:00 16.6 6 Nordeste 15 Nordeste 0 -- -- 49
2019-02-19 20:00:00 16.8 3 Sudeste 8 Este 0 -- -- 47
2019-02-19 19:00:00 17.2 4 Oeste 16 Sudoeste 0 -- -- 49
2019-02-19 18:00:00 17.7 5 Sudoeste 15 Sudoeste 0 -- -- 54
2019-02-19 17:00:00 18 0 Calma 18 Sudoeste 0 -- -- 50
2019-02-19 16:00:00 18.7 8 Sudoeste 20 Sudoeste 0 -- -- 51
2019-02-19 15:00:00 19.6 8 Oeste 22 Oeste 0 -- -- 47
2019-02-19 14:00:00 20.3 7 Noroeste 20 Sudoeste 0 -- -- 45
2019-02-19 13:00:00 19.7 9 Sudoeste 17 Sudoeste 0 -- -- 44
2019-02-19 12:00:00 19.4 7 Sudoeste 18 Sudoeste 0 -- -- 46
2019-02-19 11:00:00 18.8 3 Norte 9 Sudoeste 0 -- -- 45
2019-02-19 10:00:00 17.3 2 Norte 9 Sudeste 0 -- -- 51
2019-02-19 09:00:00 15.9 0 Calma 5 Noroeste 0 -- -- 57
2019-02-19 08:00:00 15.1 0 Calma 6 Sudeste 0 -- -- 55
2019-02-19 07:00:00 15.1 2 Sudeste 5 Sudeste 0 -- -- 55
2019-02-19 06:00:00 15.1 0 Calma 6 Sudeste 0 -- -- 56
2019-02-19 05:00:00 14.9 0 Calma 3 Este 0 -- -- 56
2019-02-19 04:00:00 15 0 Calma 6 Sudeste 0 -- -- 57
2019-02-19 03:00:00 15.5 0 Calma 3 Sur 0 -- -- 57
2019-02-19 02:00:00 16 0 Calma 5 Oeste 0 -- -- 55
2019-02-19 01:00:00 16 0 Calma 4 Sudeste 0 -- -- 57
2019-02-19 00:00:00 16.4 4 Sudeste 6 Sudeste 0 -- -- 55
2019-02-18 23:00:00 16.2 0 Calma 4 Norte 0 -- -- 57
2019-02-18 22:00:00 16.8 0 Calma 4 Oeste 0 -- -- 56
2019-02-18 21:00:00 17.1 3 Sur 5 Sudeste 0 -- -- 52
2019-02-18 20:00:00 17.1 3 Sudoeste 12 Sur 0 -- -- 54
2019-02-18 19:00:00 18.1 4 Noroeste 15 Oeste 0 -- -- 57
2019-02-18 18:00:00 20.2 4 Noroeste 27 Oeste 0 -- -- 53
2019-02-18 17:00:00 21 10 Sudoeste 21 Sudoeste 0 -- -- 54
2019-02-18 16:00:00 21.3 11 Sudoeste 18 Sudoeste 0 -- -- 53
2019-02-18 15:00:00 21 9 Oeste 22 Noroeste 0 -- -- 58
2019-02-18 14:00:00 21.1 10 Oeste 24 Oeste 0 -- -- 50
2019-02-18 13:00:00 20.3 10 Sudoeste 28 Sudoeste 0 -- -- 57
2019-02-18 12:00:00 19.9 12 Oeste 23 Oeste 0 -- -- 58
2019-02-18 11:00:00 19.9 9 Sudoeste 17 Sudoeste 0 -- -- 55
2019-02-18 10:00:00 17.6 0 Calma 4 Noroeste 0 -- -- 67
2019-02-18 09:00:00 14.9 0 Calma 6 Nordeste 0 -- -- 74
2019-02-18 08:00:00 14.2 0 Calma 8 Este 0 -- -- 68
2019-02-18 07:00:00 15.1 6 Este 14 Nordeste 0 -- -- 59
2019-02-18 06:00:00 15.2 10 Nordeste 14 Nordeste 0 -- -- 57
2019-02-18 05:00:00 15.1 6 Este 10 Este 0 -- -- 68
2019-02-18 04:00:00 15.1 0 Calma 9 Este 0 -- -- 72
2019-02-18 03:00:00 14.7 3 Este 8 Norte 0 -- -- 67
2019-02-18 02:00:00 14.8 2 Norte 6 Nordeste 0 -- -- 67
2019-02-18 01:00:00 15.8 4 Este 7 Este 0 -- -- 54
2019-02-18 00:00:00 16.5 2 Sudeste 11 Este 0 -- -- 53
2019-02-17 23:00:00 16.8 4 Nordeste 13 Este 0 -- -- 58
2019-02-17 22:00:00 16.8 5 Nordeste 13 Nordeste 0 -- -- 60
2019-02-17 21:00:00 17 0 Calma 9 Este 0 -- -- 63
2019-02-17 20:00:00 17.5 3 Sudoeste 9 Sudoeste 0 -- -- 59
2019-02-17 19:00:00 18.5 5 Sudoeste 15 Noroeste 0 -- -- 53
2019-02-17 18:00:00 20.4 7 Oeste 17 Oeste 0 -- -- 45
2019-02-17 17:00:00 21.5 10 Oeste 16 Oeste 0 -- -- 48
2019-02-17 16:00:00 22.1 8 Oeste 17 Oeste 0 -- -- 46
2019-02-17 15:00:00 22.9 8 Oeste 15 Oeste 0 -- -- 41
2019-02-17 14:00:00 22.2 6 Oeste 17 Noroeste 0 -- -- 39
2019-02-17 13:00:00 22.1 10 Oeste 17 Sudoeste 0 -- -- 42
2019-02-17 12:00:00 21.5 7 Oeste 14 Sudoeste 0 -- -- 44
2019-02-17 11:00:00 20.1 6 Oeste 12 Oeste 0 -- -- 49
2019-02-17 10:00:00 17.3 0 Calma 3 Este 0 -- -- 55
2019-02-17 09:00:00 14.9 2 Este 10 Este 0 -- -- 61
2019-02-17 08:00:00 12.9 0 Calma 10 Este 0 -- -- 69
2019-02-17 07:00:00 14.5 5 Este 8 Este 0 -- -- 61
2019-02-17 06:00:00 14.1 0 Calma 4 Este 0 -- -- 65
2019-02-17 05:00:00 14.4 3 Nordeste 8 Este 0 -- -- 72
2019-02-17 04:00:00 14.1 2 Nordeste 5 Nordeste 0 -- -- 76
2019-02-17 03:00:00 15 2 Nordeste 6 Noroeste 0 -- -- 68
2019-02-17 02:00:00 14.4 2 Este 5 Norte 0 -- -- 69
2019-02-17 01:00:00 15.1 3 Nordeste 6 Este 0 -- -- 66
2019-02-17 00:00:00 15.9 3 Nordeste 8 Nordeste 0 -- -- 76
2019-02-16 23:00:00 16.1 3 Nordeste 5 Norte 0 -- -- 74
2019-02-16 22:00:00 16.2 4 Norte 8 Noroeste 0 -- -- 76
2019-02-16 21:00:00 16.3 2 Noroeste 9 Sur 0 -- -- 75
2019-02-16 20:00:00 17 5 Oeste 15 Sudoeste 0 -- -- 72
2019-02-16 19:00:00 18.3 9 Oeste 17 Sudoeste 0 -- -- 65
2019-02-16 18:00:00 19.9 6 Sudoeste 18 Oeste 0 -- -- 60
2019-02-16 17:00:00 20.3 8 Oeste 17 Oeste 0 -- -- 62
2019-02-16 16:00:00 20 7 Sudoeste 18 Oeste 0 -- -- 62
2019-02-16 15:00:00 21.8 9 Oeste 22 Oeste 0 -- -- 54
2019-02-16 14:00:00 21.9 9 Sudoeste 22 Sudoeste 0 -- -- 52
2019-02-16 13:00:00 20.3 7 Oeste 20 Sudoeste 0 -- -- 55
2019-02-16 12:00:00 19.3 10 Oeste 20 Sudoeste 0 -- -- 58
2019-02-16 11:00:00 19.8 6 Sudoeste 12 Sudoeste 0 -- -- 56
2019-02-16 10:00:00 16.6 4 Oeste 8 Oeste 0 -- -- 65
2019-02-16 09:00:00 14.3 0 Calma 8 Este 0 -- -- 65
2019-02-16 08:00:00 12.9 0 Calma 8 Este 0 -- -- 68
2019-02-16 07:00:00 12.9 0 Calma 7 Sudeste 0 -- -- 68
2019-02-16 06:00:00 13.9 2 Nordeste 6 Oeste 0 -- -- 68
2019-02-16 05:00:00 14.3 2 Sur 11 Noroeste 0 -- -- 64
2019-02-16 04:00:00 14.4 0 Calma 9 Este 0 -- -- 62
2019-02-16 03:00:00 14.9 5 Nordeste 7 Nordeste 0 -- -- 62
2019-02-16 02:00:00 15 3 Sur 10 Este 0 -- -- 60
2019-02-16 01:00:00 14.5 0 Calma 20 Oeste 0 -- -- 64
2019-02-16 00:00:00 15.5 6 Norte 29 Noroeste 0 -- -- 62
2019-02-15 23:00:00 15.8 2 Sur 18 Noroeste 0 -- -- 55
2019-02-15 22:00:00 16.3 5 Oeste 19 Noroeste 0 -- -- 52
2019-02-15 21:00:00 16.5 0 Calma 6 Sudoeste 0 -- -- 60
2019-02-15 20:00:00 16.9 2 Noroeste 17 Sudoeste 0 -- -- 60
2019-02-15 19:00:00 18.2 6 Sudoeste 51 Nordeste 0 -- -- 47
2019-02-15 18:00:00 18.7 16 Oeste 49 Noroeste 0 -- -- 48
2019-02-15 17:00:00 19.6 17 Oeste 41 Noroeste 0 -- -- 44
2019-02-15 16:00:00 20.4 16 Oeste 46 Noroeste 0 -- -- 43
2019-02-15 15:00:00 20.7 16 Oeste 42 Oeste 0 -- -- 45
2019-02-15 14:00:00 20.4 21 Noroeste 51 Oeste 0 -- -- 40
2019-02-15 13:00:00 20.4 18 Oeste 45 Oeste 0 -- -- 47
2019-02-15 12:00:00 20.1 17 Oeste 48 Oeste 0 -- -- 47
2019-02-15 11:00:00 19.3 17 Oeste 43 Sudoeste 0 -- -- 52
2019-02-15 10:00:00 17.8 12 Oeste 32 Oeste 0 -- -- 64
2019-02-15 09:00:00 16.6 8 Oeste 33 Oeste 0 -- -- 71
2019-02-15 08:00:00 16.9 14 Oeste 31 Sudoeste 0 -- -- 64
2019-02-15 07:00:00 17 10 Sudoeste 36 Sudoeste 0 -- -- 58
2019-02-15 06:00:00 16.3 17 Oeste 37 Oeste 0 -- -- 73
2019-02-15 05:00:00 17.5 14 Sudoeste 36 Oeste 0 -- -- 63
2019-02-15 04:00:00 17 11 Sudoeste 28 Noroeste 0 -- -- 76
2019-02-15 03:00:00 17.7 9 Noroeste 17 Noroeste 0 -- -- 70
2019-02-15 02:00:00 16 0 Calma 8 Sudoeste 0 -- -- 53
2019-02-15 01:00:00 16.9 3 Norte 9 Sur 0 -- -- 48
2019-02-15 00:00:00 17.7 4 Sur 12 Sudoeste 0 -- -- 42
2019-02-14 23:00:00 19.3 0 Calma 13 Nordeste 0 -- -- 35
2019-02-14 22:00:00 20.4 5 Este 17 Nordeste 0 -- -- 33
2019-02-14 21:00:00 21 6 Este 19 Nordeste 0 -- -- 32
2019-02-14 20:00:00 21.7 8 Nordeste 33 Nordeste 0 -- -- 28
2019-02-14 19:00:00 22 13 Nordeste 30 Norte 0 -- -- 29
2019-02-14 18:00:00 23.5 13 Nordeste 26 Este 0 -- -- 28
2019-02-14 17:00:00 24.8 10 Norte 29 Norte 0 -- -- 27
2019-02-14 16:00:00 25.3 10 Este 28 Sudeste 0 -- -- 25
2019-02-14 15:00:00 25.6 10 Nordeste 36 Este 0 -- -- 27
2019-02-14 14:00:00 26.8 6 Norte 30 Nordeste 0 -- -- 25
2019-02-14 13:00:00 25 14 Este 40 Sudeste 0 -- -- 27
2019-02-14 12:00:00 25.3 10 Norte 31 Nordeste 0 -- -- 25
2019-02-14 11:00:00 25.3 13 Este 30 Este 0 -- -- 20
2019-02-14 10:00:00 25.1 10 Nordeste 30 Este 0 -- -- 14
2019-02-14 09:00:00 24.8 6 Este 31 Nordeste 0 -- -- 10
2019-02-14 08:00:00 24.6 16 Nordeste 35 Nordeste 0 -- -- 9
2019-02-14 07:00:00 24.6 8 Nordeste 31 Este 0 -- -- 9
2019-02-14 06:00:00 25.2 11 Nordeste 32 Nordeste 0 -- -- 9
2019-02-14 05:00:00 25.5 13 Nordeste 36 Norte 0 -- -- 8
2019-02-14 04:00:00 25.5 9 Nordeste 26 Nordeste 0 -- -- 8
2019-02-14 03:00:00 25.8 13 Nordeste 30 Este 0 -- -- 8
2019-02-14 02:00:00 25.2 6 Sudeste 23 Nordeste 0 -- -- 8
2019-02-14 01:00:00 25.1 12 Nordeste 23 Nordeste 0 -- -- 7
2019-02-14 00:00:00 24.9 11 Nordeste 23 Nordeste 0 -- -- 7
2019-02-13 23:00:00 24.8 8 Nordeste 23 Nordeste 0 -- -- 7
2019-02-13 22:00:00 25.1 14 Nordeste 24 Nordeste 0 -- -- 7
2019-02-13 21:00:00 25 11 Nordeste 22 Nordeste 0 -- -- 7
2019-02-13 20:00:00 24.8 8 Nordeste 19 Sudeste 0 -- -- 8
2019-02-13 19:00:00 25.4 7 Sudeste 18 Este 0 -- -- 8
2019-02-13 18:00:00 27.2 6 Norte 19 Nordeste 0 -- -- 8
2019-02-13 17:00:00 28.2 7 Norte 21 Nordeste 0 -- -- 9
2019-02-13 16:00:00 28.5 10 Norte 32 Nordeste 0 -- -- 8
2019-02-13 15:00:00 28.3 9 Nordeste 27 Nordeste 0 -- -- 10
2019-02-13 14:00:00 28.2 9 Norte 27 Nordeste 0 -- -- 14
2019-02-13 13:00:00 28.9 9 Nordeste 26 Este 0 -- -- 12
2019-02-13 12:00:00 28.5 11 Norte 33 Nordeste 0 -- -- 11
2019-02-13 11:00:00 28.2 10 Norte 33 Sudoeste 0 -- -- 13
2019-02-13 10:00:00 26.8 10 Este 28 Este 0 -- -- 11
2019-02-13 09:00:00 25 9 Este 31 Este 0 -- -- 11
2019-02-13 08:00:00 20.5 8 Sudeste 27 Sudeste 0 -- -- 27
2019-02-13 07:00:00 24.6 8 Nordeste 21 Nordeste 0 -- -- 10
2019-02-13 06:00:00 21 9 Nordeste 18 Nordeste 0 -- -- 12
2019-02-13 05:00:00 19 0 Calma 7 Nordeste 0 -- -- 18
2019-02-13 04:00:00 23.9 6 Este 16 Este 0 -- -- 11
2019-02-13 03:00:00 24.6 8 Nordeste 19 Norte 0 -- -- 10
2019-02-13 02:00:00 18 2 Norte 7 Nordeste 0 -- -- 21
2019-02-13 01:00:00 18.9 4 Sudoeste 8 Sudoeste 0 -- -- 25
2019-02-13 00:00:00 18.7 3 Sudoeste 9 Nordeste 0 -- -- 26
2019-02-12 23:00:00 18.5 3 Sudoeste 7 Oeste 0 -- -- 26
2019-02-12 22:00:00 19.4 0 Calma 12 Nordeste 0 -- -- 24
2019-02-12 21:00:00 20 5 Nordeste 14 Este 0 -- -- 15
2019-02-12 20:00:00 20.1 0 Calma 2 Este 0 -- -- 35
2019-02-12 19:00:00 23 0 Calma 6 Sudoeste 0 -- -- 34
2019-02-12 18:00:00 26.1 4 Sudoeste 11 Noroeste 0 -- -- 27
2019-02-12 17:00:00 27.4 5 Oeste 14 Oeste 0 -- -- 21
2019-02-12 16:00:00 28.3 8 Oeste 15 Sudoeste 0 -- -- 18
2019-02-12 15:00:00 28 8 Oeste 17 Oeste 0 -- -- 24
2019-02-12 14:00:00 27.3 8 Sudoeste 13 Sudoeste 0 -- -- 23
2019-02-12 13:00:00 27.7 8 Oeste 14 Oeste 0 -- -- 19
2019-02-12 12:00:00 27.7 6 Sudoeste 10 Sudoeste 0 -- -- 21
2019-02-12 11:00:00 25.7 2 Sur 6 Sudoeste 0 -- -- 15
2019-02-12 10:00:00 21.3 0 Calma 4 Nordeste 0 -- -- 15
2019-02-12 09:00:00 18.4 0 Calma 10 Sur 0 -- -- 17
2019-02-12 08:00:00 19 2 Sudoeste 14 Este 0 -- -- 16
2019-02-12 07:00:00 22.4 8 Nordeste 16 Nordeste 0 -- -- 11
2019-02-12 06:00:00 23.9 6 Este 20 Este 0 -- -- 10
2019-02-12 05:00:00 23 9 Nordeste 23 Nordeste 0 -- -- 12
2019-02-12 04:00:00 17.6 2 Nordeste 6 Sudeste 0 -- -- 21
2019-02-12 03:00:00 18.6 2 Sudeste 10 Este 0 -- -- 22
2019-02-12 02:00:00 18.9 3 Nordeste 6 Este 0 -- -- 22
2019-02-12 01:00:00 19.1 2 Norte 8 Este 0 -- -- 22
2019-02-12 00:00:00 18.7 2 Sur 8 Nordeste 0 -- -- 23
2019-02-11 23:00:00 20.9 3 Este 7 Este 0 -- -- 19
2019-02-11 22:00:00 20.7 2 Sur 6 Nordeste 0 -- -- 21
2019-02-11 21:00:00 22.3 2 Nordeste 16 Sudeste 0 -- -- 19
2019-02-11 20:00:00 24.8 7 Este 24 Este 0 -- -- 11
2019-02-11 19:00:00 25.2 10 Este 27 Este 0 -- -- 10
2019-02-11 18:00:00 26.5 9 Norte 28 Este 0 -- -- 10
2019-02-11 17:00:00 27.5 11 Nordeste 26 Norte 0 -- -- 10
2019-02-11 16:00:00 27.6 11 Norte 34 Nordeste 0 -- -- 12
2019-02-11 15:00:00 28.8 11 Noroeste 28 Oeste 0 -- -- 13
2019-02-11 14:00:00 28.7 14 Nordeste 32 Nordeste 0 -- -- 10
2019-02-11 13:00:00 28.6 12 Noroeste 37 Este 0 -- -- 10
2019-02-11 12:00:00 28.3 10 Nordeste 36 Nordeste 0 -- -- 10
2019-02-11 11:00:00 27 11 Este 35 Este 0 -- -- 11
2019-02-11 10:00:00 26.6 9 Este 27 Este 0 -- -- 11
2019-02-11 09:00:00 25.1 10 Este 31 Este 0 -- -- 11
2019-02-11 08:00:00 24.7 10 Este 30 Este 0 -- -- 11
2019-02-11 07:00:00 24.8 12 Este 30 Este 0 -- -- 11
2019-02-11 06:00:00 24.9 8 Nordeste 39 Nordeste 0 -- -- 11
2019-02-11 05:00:00 24.9 8 Este 31 Nordeste 0 -- -- 11
2019-02-11 04:00:00 25.1 13 Nordeste 35 Nordeste 0 -- -- 11
2019-02-11 03:00:00 17.2 4 Nordeste 18 Sur 0 -- -- 25
2019-02-11 02:00:00 14.7 3 Sudoeste 9 Sudoeste 0 -- -- 69
2019-02-11 01:00:00 15.7 3 Nordeste 9 Sur 0 -- -- 57
2019-02-11 00:00:00 16.2 2 Sur 9 Sudoeste 0 -- -- 38
2019-02-10 23:00:00 16.9 4 Oeste 11 Sudoeste 0 -- -- 36
2019-02-10 22:00:00 17.2 0 Calma 5 Sur -- -- -- 37
2019-02-10 21:00:00 16.9 0 Calma 5 Este 0 -- -- 40
2019-02-10 20:00:00 18.9 0 Calma 6 Sudeste 0 -- -- 40
2019-02-10 19:00:00 21 2 Sudoeste 11 Oeste 0 -- -- 37
2019-02-10 18:00:00 24.2 8 Noroeste 18 Nordeste 0 -- -- 29
2019-02-10 17:00:00 24.3 7 Noroeste 25 Noroeste 0 -- -- 27
2019-02-10 16:00:00 25.4 9 Noroeste 24 Oeste 0 -- -- 25
2019-02-10 15:00:00 24.9 8 Oeste 17 Sudoeste 0 -- -- 30
2019-02-10 14:00:00 24.6 8 Oeste 15 Noroeste 0 -- -- 40
2019-02-10 13:00:00 24.4 7 Noroeste 18 Sudoeste 0 -- -- 31
2019-02-10 12:00:00 24.1 8 Sudoeste 24 Este 0 -- -- 34
2019-02-10 11:00:00 21.9 6 Oeste 12 Sudoeste 0 -- -- 48
2019-02-10 10:00:00 18.5 4 Oeste 14 Sur 0 -- -- 56
2019-02-10 09:00:00 15.2 0 Calma 9 Sudoeste 0 -- -- 54
2019-02-10 08:00:00 14.5 0 Calma 10 Este 0 -- -- 77
2019-02-10 07:00:00 14.9 5 Este 9 Este 0 -- -- 74
2019-02-10 06:00:00 13.5 5 Sudeste 8 Sudeste 0 -- -- 73
2019-02-10 05:00:00 13.9 4 Sudeste 9 Sudeste 0 -- -- 55
2019-02-10 04:00:00 13.7 0 Calma 4 Nordeste 0 -- -- 42
2019-02-10 03:00:00 15.3 3 Nordeste 14 Este 0 -- -- 42
2019-02-10 02:00:00 15.3 3 Sudeste 6 Sudoeste 0 -- -- 49
2019-02-10 01:00:00 14.7 0 Calma 4 Sur 0 -- -- 60
2019-02-10 00:00:00 14.3 0 Calma 4 Sur 0 -- -- 71
2019-02-09 23:00:00 13.4 0 Calma 2 Sudoeste 0 -- -- 73
2019-02-09 22:00:00 13.7 0 Calma 6 Sudeste 0 -- -- 79
2019-02-09 21:00:00 15.1 0 Calma 3 Sur 0 -- -- 75
2019-02-09 20:00:00 16.4 2 Sur 5 Sudoeste 0 -- -- 70
2019-02-09 19:00:00 18.3 0 Calma 6 Noroeste 0 -- -- 64
2019-02-09 18:00:00 20.9 4 Oeste 11 Sudoeste 0 -- -- 58
2019-02-09 17:00:00 21.4 6 Oeste 15 Sudoeste 0 -- -- 56
2019-02-09 16:00:00 22.3 7 Oeste 14 Sudoeste 0 -- -- 53
2019-02-09 15:00:00 22.2 5 Sudoeste 13 Sudoeste 0 -- -- 53
2019-02-09 14:00:00 21.5 8 Oeste 16 Oeste 0 -- -- 57
2019-02-09 13:00:00 21.3 6 Oeste 14 Oeste 0 -- -- 56
2019-02-09 12:00:00 19.9 5 Noroeste 13 Oeste 0 -- -- 61
2019-02-09 11:00:00 18.9 7 Oeste 14 Oeste 0 -- -- 63
2019-02-09 10:00:00 15.1 0 Calma 8 Este 0 -- -- 74
2019-02-09 09:00:00 13.5 4 Nordeste 7 Nordeste 0 -- -- 83
2019-02-09 08:00:00 12.5 0 Calma 8 Este 0 -- -- 77
2019-02-09 07:00:00 12.2 0 Calma 9 Este 0 -- -- 71
2019-02-09 06:00:00 13.1 5 Este 8 Este 0 -- -- 76
2019-02-09 05:00:00 13.1 0 Calma 10 Este 0 -- -- 75
2019-02-09 04:00:00 13.7 3 Este 6 Nordeste 0 -- -- 82
2019-02-09 03:00:00 12.5 0 Calma 6 Nordeste 0 -- -- 82
2019-02-09 02:00:00 13.7 2 Nordeste 8 Este 0 -- -- 75
2019-02-09 01:00:00 13.5 6 Este 8 Este 0 -- -- 73
2019-02-09 00:00:00 13 2 Nordeste 4 Nordeste 0 -- -- 83
2019-02-08 23:00:00 13.9 0 Calma 3 Sudeste 0 -- -- 77
2019-02-08 22:00:00 14.6 0 Calma 4 Sudeste 0 -- -- 78
2019-02-08 21:00:00 15.4 0 Calma 3 Sudoeste 0 -- -- 73
2019-02-08 20:00:00 16.1 0 Calma 6 Sudoeste 0 -- -- 72
2019-02-08 19:00:00 17.5 3 Sudoeste 9 Sudoeste 0 -- -- 66
2019-02-08 18:00:00 19.6 6 Sudoeste 12 Oeste 0 -- -- 60
2019-02-08 17:00:00 20.6 7 Oeste 15 Oeste 0 -- -- 56
2019-02-08 16:00:00 21.1 9 Oeste 19 Oeste 0 -- -- 54
2019-02-08 15:00:00 21.4 9 Oeste 21 Oeste 0 -- -- 51
2019-02-08 14:00:00 20.8 9 Oeste 19 Sudoeste 0 -- -- 51
2019-02-08 13:00:00 20.9 8 Oeste 18 Sudoeste 0 -- -- 52
2019-02-08 12:00:00 20.3 7 Oeste 13 Noroeste 0 -- -- 52
2019-02-08 11:00:00 18.6 7 Sudoeste 13 Sudoeste 0 -- -- 62
2019-02-08 10:00:00 15.3 0 Calma 2 Sudeste 0 -- -- 75
2019-02-08 09:00:00 12.5 0 Calma 5 Nordeste 0 -- -- 81
2019-02-08 08:00:00 12 0 Calma 4 Este 0 -- -- 81
2019-02-08 07:00:00 12.6 0 Calma 13 Este 0 -- -- 73
2019-02-08 06:00:00 13.5 7 Este 9 Este 0 -- -- 74
2019-02-08 05:00:00 13.4 0 Calma 10 Este 0 -- -- 77
2019-02-08 04:00:00 14 5 Este 8 Este 0 -- -- 78
2019-02-08 03:00:00 13.7 0 Calma 9 Este 0 -- -- 71
2019-02-08 02:00:00 14.1 4 Este 6 Este 0 -- -- 78
2019-02-08 01:00:00 14.5 0 Calma 5 Nordeste 0 -- -- 80
2019-02-08 00:00:00 13.8 2 Nordeste 3 Este 0 -- -- 80
2019-02-07 23:00:00 14.4 0 Calma 3 Sudeste 0 -- -- 74
2019-02-07 22:00:00 14.7 0 Calma -- -- 0 -- -- 67
2019-02-07 21:00:00 15.4 0 Calma 2 Sudoeste 0 -- -- 66
2019-02-07 20:00:00 16.8 2 Sudoeste 4 Sudoeste 0 -- -- 66
2019-02-07 19:00:00 18.4 3 Sudoeste 7 Sudoeste 0 -- -- 58
2019-02-07 18:00:00 20.6 5 Oeste 14 Oeste 0 -- -- 53
2019-02-07 17:00:00 21.9 7 Oeste 15 Oeste 0 -- -- 49
2019-02-07 16:00:00 22.4 8 Oeste 16 Oeste 0 -- -- 46
2019-02-07 15:00:00 22.6 8 Oeste 17 Oeste 0 -- -- 44
2019-02-07 14:00:00 -- -- -- -- -- -- -- -- --
2019-02-07 13:00:00 22.4 9 Sudoeste 17 Sudoeste 0 -- -- 40
2019-02-07 12:00:00 21.8 6 Oeste 14 Oeste 0 -- -- 44
2019-02-07 11:00:00 20.8 5 Sudoeste 11 Sudoeste 0 -- -- 42
2019-02-07 10:00:00 16.6 2 Sudeste 5 Sudeste 0 -- -- 42
2019-02-07 09:00:00 13.4 0 Calma 7 Este 0 -- -- 41
2019-02-07 08:00:00 12.1 0 Calma 9 Nordeste 0 -- -- 44
2019-02-07 07:00:00 13 0 Calma 8 Nordeste 0 -- -- 43
2019-02-07 06:00:00 15.6 5 Este 8 Este 0 -- -- 37
2019-02-07 05:00:00 13.7 0 Calma 9 Este 0 -- -- 46
2019-02-07 04:00:00 13.8 0 Calma 4 Nordeste 0 -- -- 48
2019-02-07 03:00:00 14.4 0 Calma 9 Este 0 -- -- 38
2019-02-07 02:00:00 15.2 3 Este 10 Nordeste 0 -- -- 46
2019-02-07 01:00:00 15.4 5 Este 9 Este 0 -- -- 38
2019-02-07 00:00:00 14.1 0 Calma 6 Sudeste 0 -- -- 42
2019-02-06 23:00:00 15.5 0 Calma 5 Este 0 -- -- 37
2019-02-06 22:00:00 16.2 2 Nordeste 4 Este 0 -- -- 40
2019-02-06 21:00:00 16.6 0 Calma 4 Sur 0 -- -- 43
2019-02-06 20:00:00 17.7 2 Sudoeste 5 Sudoeste 0 -- -- 42
2019-02-06 19:00:00 19.4 2 Noroeste 11 Noroeste 0 -- -- 37
2019-02-06 18:00:00 21.8 5 Oeste 13 Oeste 0 -- -- 34
2019-02-06 17:00:00 23.4 6 Oeste 14 Oeste 0 -- -- 31
2019-02-06 16:00:00 23.4 9 Oeste 16 Oeste 0 -- -- 33
2019-02-06 15:00:00 23.8 9 Oeste 19 Noroeste 0 -- -- 35
2019-02-06 14:00:00 23.5 9 Oeste 18 Oeste 0 -- -- 38
2019-02-06 13:00:00 23.6 11 Oeste 23 Sudoeste 0 -- -- 40
2019-02-06 12:00:00 22.9 5 Sudoeste 20 Sudoeste 0 -- -- 29
2019-02-06 11:00:00 21.5 5 Oeste 13 Oeste 0 -- -- 30
2019-02-06 10:00:00 17.5 0 Calma 6 Este 0 -- -- 45
2019-02-06 09:00:00 15 3 Sudeste 6 Sudeste 0 -- -- 29
2019-02-06 08:00:00 13.7 0 Calma 5 Nordeste 0 -- -- 30
2019-02-06 07:00:00 14.8 2 Sur 17 Sudeste 0 -- -- 25
2019-02-06 06:00:00 17.1 5 Sur 13 Este 0 -- -- 20
2019-02-06 05:00:00 19.5 7 Este 21 Nordeste 0 -- -- 11
2019-02-06 04:00:00 17.2 2 Este 10 Norte 0 -- -- 14
2019-02-06 03:00:00 19.9 5 Nordeste 21 Nordeste 0 -- -- 12
2019-02-06 02:00:00 15.4 3 Sudoeste 8 Sur 0 -- -- 34
2019-02-06 01:00:00 17.3 3 Sur 13 Este 0 -- -- 28
2019-02-06 00:00:00 19.9 6 Este 18 Este 0 -- -- 12
2019-02-05 23:00:00 18.7 4 Nordeste 19 Sudeste 0 -- -- 13
2019-02-05 22:00:00 17.8 4 Sur 20 Nordeste 0 -- -- 33
2019-02-05 21:00:00 18.1 8 Nordeste 18 Norte 0 -- -- 27
2019-02-05 20:00:00 18.3 10 Nordeste 23 Nordeste 0 -- -- 29
2019-02-05 19:00:00 18.9 9 Este 26 Sudeste 0 -- -- 29
2019-02-05 18:00:00 21.1 6 Este 33 Norte 0 -- -- 21
2019-02-05 17:00:00 21.5 13 Norte 35 Nordeste 0 -- -- 23
2019-02-05 16:00:00 22.1 13 Norte 37 Nordeste 0 -- -- 23
2019-02-05 15:00:00 22.7 12 Noroeste 32 Sudeste 0 -- -- 25
2019-02-05 14:00:00 22.8 14 Norte 41 Nordeste 0 -- -- 20
2019-02-05 13:00:00 22.6 13 Norte 45 Este 0 -- -- 19
2019-02-05 12:00:00 22.1 14 Norte 43 Sur 0 -- -- 17
2019-02-05 11:00:00 21.6 12 Nordeste 36 Este 0 -- -- 19
2019-02-05 10:00:00 20.8 11 Este 38 Nordeste 0 -- -- 18
2019-02-05 09:00:00 20.3 12 Este 36 Este 0 -- -- 18
2019-02-05 08:00:00 20.4 11 Este 32 Nordeste 0 -- -- 16
2019-02-05 07:00:00 20.7 8 Este 32 Sudeste 0 -- -- 17
2019-02-05 06:00:00 21 10 Este 27 Este 0 -- -- 15
2019-02-05 05:00:00 21.5 11 Este 32 Este 0 -- -- 15
2019-02-05 04:00:00 21.6 9 Este 33 Este 0 -- -- 15
2019-02-05 03:00:00 22.3 11 Este 31 Nordeste 0 -- -- 15
2019-02-05 02:00:00 22.7 9 Este 29 Nordeste 0 -- -- 15
2019-02-05 01:00:00 22.8 10 Este 28 Este 0 -- -- 15
2019-02-05 00:00:00 22.7 8 Este 24 Nordeste 0 -- -- 16
2019-02-04 23:00:00 22.6 10 Este 29 Este 0 -- -- 17
2019-02-04 22:00:00 22.5 8 Este 24 Nordeste 0 -- -- 17
2019-02-04 21:00:00 21.9 9 Este 25 Este 0 -- -- 20
2019-02-04 20:00:00 17.7 3 Sur 6 Sudoeste 0 -- -- 56
2019-02-04 19:00:00 18.3 0 Calma 7 Sudoeste 0 -- -- 54
2019-02-04 18:00:00 20.3 3 Sudoeste 10 Sudoeste 0 -- -- 52
2019-02-04 17:00:00 21.3 6 Oeste 14 Sudoeste 0 -- -- 49
2019-02-04 16:00:00 21.6 6 Oeste 14 Oeste 0 -- -- 53
2019-02-04 15:00:00 21.7 6 Oeste 15 Sudoeste 0 -- -- 51
2019-02-04 14:00:00 21.7 8 Sudoeste 14 Sudoeste 0 -- -- 52
2019-02-04 13:00:00 21.6 8 Oeste 14 Oeste 0 -- -- 53
2019-02-04 12:00:00 20.4 5 Sudoeste 13 Oeste 0 -- -- 57
2019-02-04 11:00:00 19.3 6 Sudoeste 10 Sudoeste 0 -- -- 59
2019-02-04 10:00:00 15.8 0 Calma 6 Norte 0 -- -- 70
2019-02-04 09:00:00 14.6 5 Norte 9 Norte 0 -- -- 75
2019-02-04 08:00:00 13.3 0 Calma 5 Norte 0 -- -- 80
2019-02-04 07:00:00 14 3 Nordeste 10 Este 0 -- -- 77
2019-02-04 06:00:00 14.2 5 Este 8 Este 0 -- -- 74
2019-02-04 05:00:00 13.8 0 Calma 5 Nordeste 0 -- -- 75
2019-02-04 04:00:00 13.2 0 Calma 8 Este 0 -- -- 71
2019-02-04 03:00:00 14.8 4 Este 10 Este 0 -- -- 67
2019-02-04 02:00:00 14.5 0 Calma 10 Este 0 -- -- 69
2019-02-04 01:00:00 15 7 Este 10 Nordeste 0 -- -- 67
2019-02-04 00:00:00 15.3 3 Este 4 Este 0 -- -- 69
2019-02-03 23:00:00 13.6 0 Calma 2 Nordeste 0 -- -- 75
2019-02-03 22:00:00 14.3 0 Calma -- -- 0 -- -- 72
2019-02-03 21:00:00 15.3 0 Calma 2 Nordeste 0 -- -- 67
2019-02-03 20:00:00 16.2 0 Calma -- -- 0 -- -- 63
2019-02-03 19:00:00 17.6 0 Calma 11 Sudoeste 0 -- -- 61
2019-02-03 18:00:00 19.5 5 Noroeste 18 Sudoeste 0 -- -- 56
2019-02-03 17:00:00 20.4 10 Sudoeste 21 Sudoeste 0 -- -- 53
2019-02-03 16:00:00 19.6 10 Sudoeste 18 Sudoeste 0 -- -- 54
2019-02-03 15:00:00 20.8 10 Sudoeste 21 Sudoeste 0 -- -- 49
2019-02-03 14:00:00 21 12 Sudoeste 23 Sudoeste 0 -- -- 50
2019-02-03 13:00:00 21 8 Oeste 18 Oeste 0 -- -- 51
2019-02-03 12:00:00 20.5 7 Oeste 15 Oeste 0 -- -- 52
2019-02-03 11:00:00 19.5 6 Oeste 13 Oeste 0 -- -- 54
2019-02-03 10:00:00 16.7 2 Este 7 Sur 0 -- -- 59
2019-02-03 09:00:00 15 5 Nordeste 10 Este 0 -- -- 66
2019-02-03 08:00:00 14.7 4 Nordeste 10 Nordeste 0 -- -- 65
2019-02-03 07:00:00 14.6 5 Nordeste 9 Nordeste 0 -- -- 66
2019-02-03 06:00:00 15 5 Nordeste 10 Nordeste 0 -- -- 66
2019-02-03 05:00:00 13.5 0 Calma 9 Este 0 -- -- 71
2019-02-03 04:00:00 13.4 0 Calma 6 Nordeste 0 -- -- 71
2019-02-03 03:00:00 15.1 4 Nordeste 8 Nordeste 0 -- -- 65
2019-02-03 02:00:00 15.6 0 Calma 6 Noroeste 0 -- -- 65
2019-02-03 01:00:00 15.4 0 Calma 4 Norte 0 -- -- 66
2019-02-03 00:00:00 14.7 0 Calma 2 Noroeste 0 -- -- 68
2019-02-02 23:00:00 14.7 0 Calma 4 Sudeste 0 -- -- 67
2019-02-02 22:00:00 15.6 0 Calma 8 Sur 0 -- -- 64
2019-02-02 21:00:00 16.5 2 Nordeste 9 Norte 0 -- -- 63
2019-02-02 20:00:00 16.8 4 Nordeste 10 Nordeste 0 -- -- 65
2019-02-02 19:00:00 17.7 3 Noroeste 15 Sudoeste 0 -- -- 63
2019-02-02 18:00:00 20.1 8 Oeste 16 Oeste 0 -- -- 55
2019-02-02 17:00:00 21 9 Oeste 19 Oeste 0 -- -- 51
2019-02-02 16:00:00 20.6 10 Oeste 19 Oeste 0 -- -- 52
2019-02-02 15:00:00 20.4 6 Noroeste 17 Norte 0 -- -- 51
2019-02-02 14:00:00 19.9 8 Noroeste 17 Norte 0 -- -- 55
2019-02-02 13:00:00 19.8 5 Noroeste 10 Norte 0 -- -- 60
2019-02-02 12:00:00 18.8 4 Noroeste 11 Noroeste 0 -- -- 64
2019-02-02 11:00:00 18.6 3 Noroeste 6 Sudoeste 0 -- -- 68
2019-02-02 10:00:00 18 3 Noroeste 12 Norte 0 -- -- 71
2019-02-02 09:00:00 17.1 4 Noroeste 10 Oeste 0 -- -- 69
2019-02-02 08:00:00 16.9 2 Este 13 Nordeste 0 -- -- 64
2019-02-02 07:00:00 15.9 5 Nordeste 12 Nordeste 0 -- -- 70
2019-02-02 06:00:00 15.2 2 Nordeste 9 Sudeste 0 -- -- 72
2019-02-02 05:00:00 16.3 5 Este 8 Este 0 -- -- 66
2019-02-02 04:00:00 16.5 3 Nordeste 10 Nordeste 0 -- -- 70
2019-02-02 03:00:00 15.9 5 Nordeste 15 Este 0 -- -- 72
2019-02-02 02:00:00 16 5 Este 8 Este 0 -- -- 76
2019-02-02 01:00:00 15.4 0 Calma 5 Sudeste 0 -- -- 68
2019-02-02 00:00:00 16.1 0 Calma 3 Nordeste 0 -- -- 65
2019-02-01 23:00:00 17.5 2 Norte 12 Nordeste 0 -- -- 62
2019-02-01 22:00:00 17.7 6 Nordeste 23 Este 0 -- -- 60
2019-02-01 21:00:00 17.6 8 Nordeste 17 Nordeste 0 -- -- 62
2019-02-01 20:00:00 18.1 9 Este 29 Nordeste 0 -- -- 62
2019-02-01 19:00:00 19.2 10 Este 23 Nordeste 0 -- -- 54
2019-02-01 18:00:00 20.9 3 Sudoeste 14 Oeste 0 -- -- 59
2019-02-01 17:00:00 21.1 6 Oeste 14 Sur 0 -- -- 53
2019-02-01 16:00:00 19.2 6 Sudoeste 18 Sudoeste 0 -- -- 56
2019-02-01 15:00:00 21 11 Sudoeste 22 Sudoeste 0 -- -- 50
2019-02-01 14:00:00 19.8 9 Oeste 17 Oeste 0 -- -- 52
2019-02-01 13:00:00 20 8 Oeste 18 Sudoeste 0 -- -- 53
2019-02-01 12:00:00 19.4 6 Sudoeste 13 Sudoeste 0 -- -- 55
2019-02-01 11:00:00 19.2 7 Oeste 12 Oeste 0 -- -- 55
2019-02-01 10:00:00 16.2 3 Este 5 Nordeste 0 -- -- 62
2019-02-01 09:00:00 15.4 0 Calma 5 Nordeste 0 -- -- 68
2019-02-01 08:00:00 15.1 2 Sur 4 Sur 0 -- -- 67
2019-02-01 07:00:00 15.2 0 Calma 5 Este 0 -- -- 66
2019-02-01 06:00:00 15.5 4 Este 5 Este 0 -- -- 67
2019-02-01 05:00:00 15.2 0 Calma 5 Nordeste 0 -- -- 67
2019-02-01 04:00:00 15.5 2 Norte 5 Norte 0 -- -- 68
2019-02-01 03:00:00 15.9 0 Calma 4 Sur 0 -- -- 66
2019-02-01 02:00:00 16 0 Calma 4 Sudoeste 0 -- -- 64
2019-02-01 01:00:00 16.2 0 Calma 5 Sur 0 -- -- 66
2019-02-01 00:00:00 15.8 0 Calma 3 Este 0 -- -- 70
2019-01-31 23:00:00 16.6 2 Nordeste 6 Oeste 0 -- -- 68
2019-01-31 22:00:00 16.8 2 Norte 5 Norte 0 -- -- 68
2019-01-31 21:00:00 16.8 0 Calma 4 Este 0 -- -- 69
2019-01-31 20:00:00 16.9 0 Calma 9 Sudoeste 0 -- -- 69
2019-01-31 19:00:00 17.3 5 Sudoeste 19 Oeste 0 -- -- 67
2019-01-31 18:00:00 19.2 9 Oeste 24 Sudoeste 0 -- -- 60
2019-01-31 17:00:00 18.7 9 Sudoeste 21 Oeste 0 -- -- 56
2019-01-31 16:00:00 19.5 9 Sudoeste 18 Oeste 0 -- -- 56
2019-01-31 15:00:00 19.8 6 Oeste 21 Sudoeste 0 -- -- 58
2019-01-31 14:00:00 19.5 5 Oeste 17 Sudoeste 0 -- -- 54
2019-01-31 13:00:00 18.9 8 Sudoeste 14 Sudoeste 0 -- -- 57
2019-01-31 12:00:00 18.6 5 Oeste 12 Sudoeste 0 -- -- 62
2019-01-31 11:00:00 17.1 5 Sudoeste 9 Sudoeste 0 -- -- 68
2019-01-31 10:00:00 16.5 0 Calma 4 Nordeste 0 -- -- 69
2019-01-31 09:00:00 16 0 Calma 5 Sudeste 0 -- -- 68
2019-01-31 08:00:00 15.9 4 Sudeste 5 Sudeste 0 -- -- 69
2019-01-31 07:00:00 15.7 0 Calma 4 Norte 0 -- -- 70
2019-01-31 06:00:00 15.8 3 Norte 7 Noroeste 0 -- -- 69
2019-01-31 05:00:00 15.8 3 Norte 6 Norte 0 -- -- 70
2019-01-31 04:00:00 15.9 0 Calma 7 Noroeste 0 -- -- 69
2019-01-31 03:00:00 16.2 2 Oeste 8 Nordeste 0 -- -- 67
2019-01-31 02:00:00 16.3 5 Norte 10 Norte 0 -- -- 65
2019-01-31 01:00:00 16.3 3 Noroeste 7 Este 0 -- -- 69
2019-01-31 00:00:00 16.3 0 Calma 8 Norte 0 -- -- 74
2019-01-30 23:00:00 16.1 2 Norte 7 Norte 0 -- -- 75
2019-01-30 22:00:00 15.9 2 Nordeste 9 Sudeste 0 -- -- 73
2019-01-30 21:00:00 17.1 2 Sur 11 Noroeste 0 -- -- 70
2019-01-30 20:00:00 17.3 4 Noroeste 13 Norte 0 -- -- 71
2019-01-30 19:00:00 17.6 6 Noroeste 14 Norte 0 -- -- 70
2019-01-30 18:00:00 18.2 4 Noroeste 15 Oeste 0 -- -- 68
2019-01-30 17:00:00 18.7 4 Noroeste 13 Oeste 0 -- -- 65
2019-01-30 16:00:00 18.7 6 Noroeste 16 Noroeste 0 -- -- 65
2019-01-30 15:00:00 18.7 7 Noroeste 15 Noroeste 0 -- -- 64
2019-01-30 14:00:00 18.9 5 Norte 13 Sudoeste 0 -- -- 60
2019-01-30 13:00:00 18.9 9 Sudoeste 20 Oeste 0 -- -- 64
2019-01-30 12:00:00 20.5 11 Sudoeste 17 Noroeste 0 -- -- 57
2019-01-30 11:00:00 20 8 Oeste 18 Sudoeste 0 -- -- 53
2019-01-30 10:00:00 18 6 Oeste 13 Oeste 0 -- -- 58
2019-01-30 09:00:00 16.6 0 Calma 13 Nordeste 0 -- -- 67
2019-01-30 08:00:00 16.4 4 Nordeste 12 Nordeste 0 -- -- 63
2019-01-30 07:00:00 15.8 3 Sudeste 5 Sudeste 0 -- -- 70
2019-01-30 06:00:00 15.7 0 Calma 5 Nordeste 0 -- -- 73
2019-01-30 05:00:00 15.7 3 Nordeste 10 Noroeste 0 -- -- 74
2019-01-30 04:00:00 14.6 0 Calma 13 Nordeste 0 -- -- 75
2019-01-30 03:00:00 15.3 8 Nordeste 13 Nordeste 0 -- -- 69
2019-01-30 02:00:00 15.2 6 Este 9 Este 0 -- -- 74
2019-01-30 01:00:00 15.6 2 Sudeste 5 Sur 0 -- -- 76
2019-01-30 00:00:00 16 0 Calma 4 Nordeste 0 -- -- 75
2019-01-29 23:00:00 16 0 Calma 5 Sur 0 -- -- 73
2019-01-29 22:00:00 16.9 0 Calma 6 Noroeste 0 -- -- 71
2019-01-29 21:00:00 16.9 3 Sudoeste 11 Oeste 0 -- -- 73
2019-01-29 20:00:00 17.1 0 Calma 8 Noroeste 0 -- -- 72
2019-01-29 19:00:00 18.2 2 Oeste 12 Sudoeste 0 -- -- 67
2019-01-29 18:00:00 19.6 5 Sudoeste 15 Sudoeste 0 -- -- 63
2019-01-29 17:00:00 19.4 7 Sudoeste 17 Sudoeste 0 -- -- 60
2019-01-29 16:00:00 21.6 10 Oeste 22 Sudoeste 0 -- -- 56
2019-01-29 15:00:00 21 14 Sudoeste 24 Sudoeste 0 -- -- 59
2019-01-29 14:00:00 21.5 8 Oeste 21 Sudoeste 0 -- -- 55
2019-01-29 13:00:00 21.1 8 Oeste 22 Sudoeste 0 -- -- 56
2019-01-29 12:00:00 20.1 10 Sudoeste 18 Sudoeste 0 -- -- 59
2019-01-29 11:00:00 18.6 6 Sudoeste 13 Sudoeste 0 -- -- 63
2019-01-29 10:00:00 16.5 4 Noroeste 9 Noroeste 0 -- -- 71
2019-01-29 09:00:00 14.7 6 Este 11 Este 0 -- -- 76
2019-01-29 08:00:00 14 5 Este 10 Este 0 -- -- 79
2019-01-29 07:00:00 13.7 4 Nordeste 8 Norte 0 -- -- 79
2019-01-29 06:00:00 14.1 4 Nordeste 9 Norte 0 -- -- 77
2019-01-29 05:00:00 14.3 3 Noroeste 10 Noroeste 0 -- -- 76
2019-01-29 04:00:00 13.7 0 Calma 10 Este 0 -- -- 77
2019-01-29 03:00:00 14.2 8 Este 12 Este 0 -- -- 71
2019-01-29 02:00:00 13.6 0 Calma 2 Nordeste 0 -- -- 78
2019-01-29 01:00:00 14.6 0 Calma 5 Nordeste 0 -- -- 71
2019-01-29 00:00:00 15.9 3 Nordeste 9 Sudoeste 0 -- -- 70
2019-01-28 23:00:00 16 0 Calma 6 Sur 0 -- -- 71
2019-01-28 22:00:00 15.5 2 Norte 4 Norte 0 -- -- 73
2019-01-28 21:00:00 16.4 2 Sur 7 Sur 0 -- -- 68
2019-01-28 20:00:00 16.6 0 Calma 2 Nordeste 0 -- -- 67
2019-01-28 19:00:00 17.7 4 Sudoeste 12 Sudoeste 0 -- -- 66
2019-01-28 18:00:00 -- -- -- -- -- -- -- -- --
2019-01-28 17:00:00 21.4 6 Oeste 15 Sudoeste 0 -- -- 54
2019-01-28 16:00:00 21.4 8 Sudoeste 18 Sudoeste 0 -- -- 53
2019-01-28 15:00:00 21.3 11 Oeste 22 Oeste 0 -- -- 53
2019-01-28 14:00:00 21.8 9 Oeste 17 Oeste 0 -- -- 51
2019-01-28 13:00:00 21.4 9 Oeste 17 Sudoeste 0 -- -- 52
2019-01-28 12:00:00 20.9 10 Oeste 17 Sudoeste 0 -- -- 50
2019-01-28 11:00:00 19.3 6 Sudoeste 11 Oeste 0 -- -- 56
2019-01-28 10:00:00 18.1 0 Calma 7 Nordeste 0 -- -- 59
2019-01-28 09:00:00 16.5 3 Norte 6 Norte 0 -- -- 67
2019-01-28 08:00:00 15.6 0 Calma 12 Este 0 -- -- 68
2019-01-28 07:00:00 15.7 6 Este 10 Este 0 -- -- 67
2019-01-28 06:00:00 15.7 3 Nordeste 9 Norte 0 -- -- 71
2019-01-28 05:00:00 15.7 5 Norte 13 Nordeste 0 -- -- 71
2019-01-28 04:00:00 15 6 Nordeste 11 Nordeste 0 -- -- 74
2019-01-28 03:00:00 15 0 Calma 13 Este 0 -- -- 72
2019-01-28 02:00:00 15.4 8 Este 13 Este 0 -- -- 65
2019-01-28 01:00:00 15 0 Calma 6 Nordeste 0 -- -- 73
2019-01-28 00:00:00 16.1 4 Nordeste 8 Nordeste 0 -- -- 71
2019-01-27 23:00:00 16.6 3 Nordeste 8 Nordeste 0 -- -- 71
2019-01-27 22:00:00 17.6 3 Nordeste 18 Nordeste 0 -- -- 69
2019-01-27 21:00:00 18 6 Nordeste 15 Nordeste 0 -- -- 68
2019-01-27 20:00:00 18.2 4 Este 13 Sudeste 0 -- -- 60
2019-01-27 19:00:00 19 5 Nordeste 18 Nordeste 0 -- -- 60
2019-01-27 18:00:00 19.8 5 Nordeste 20 Oeste 0 -- -- 60
2019-01-27 17:00:00 20.6 11 Oeste 22 Oeste 0 -- -- 59
2019-01-27 16:00:00 20.6 7 Sudoeste 19 Sudoeste 0 -- -- 58
2019-01-27 15:00:00 19.7 9 Oeste 19 Oeste 0 -- -- 62
2019-01-27 14:00:00 19.1 9 Oeste 21 Sudoeste 0 -- -- 64
2019-01-27 13:00:00 20.7 10 Oeste 21 Oeste 0 -- -- 56
2019-01-27 12:00:00 18 4 Sudoeste 9 Oeste 0 -- -- 64
2019-01-27 11:00:00 18.6 3 Sudoeste 12 Noroeste 0 -- -- 55
2019-01-27 10:00:00 16.4 0 Calma 11 Nordeste 0 -- -- 61
2019-01-27 09:00:00 16.1 7 Nordeste 17 Nordeste 0 -- -- 59
2019-01-27 08:00:00 15.5 11 Nordeste 19 Nordeste 0 -- -- 58
2019-01-27 07:00:00 14.8 8 Este 13 Este 0 -- -- 64
2019-01-27 06:00:00 15.3 6 Este 12 Este 0 -- -- 71
2019-01-27 05:00:00 15.3 4 Nordeste 12 Nordeste 0 -- -- 73
2019-01-27 04:00:00 15.7 2 Sur 13 Norte 0 -- -- 71
2019-01-27 03:00:00 15.5 3 Nordeste 7 Nordeste 0 -- -- 72
2019-01-27 02:00:00 15.1 0 Calma 5 Sudeste 0 -- -- 74
2019-01-27 01:00:00 15.8 0 Calma 4 Nordeste 0 -- -- 73
2019-01-27 00:00:00 16.6 0 Calma 6 Sur 0 -- -- 72
2019-01-26 23:00:00 16.9 3 Norte 8 Norte 0 -- -- 73
2019-01-26 22:00:00 16.9 3 Nordeste 14 Este 0 -- -- 71
2019-01-26 21:00:00 16.8 6 Nordeste 13 Nordeste 0 -- -- 73
2019-01-26 20:00:00 17.4 4 Este 13 Nordeste 0 -- -- 73
2019-01-26 19:00:00 17.7 4 Este 11 Este 0 -- -- 69
2019-01-26 18:00:00 18.3 4 Norte 9 Sudoeste 0 -- -- 65
2019-01-26 17:00:00 18.2 4 Sudoeste 17 Sudoeste 0 -- -- 72
2019-01-26 16:00:00 18.6 5 Sudoeste 13 Oeste 0 -- -- 70
2019-01-26 15:00:00 20.4 7 Sudoeste 16 Sudoeste 0 -- -- 60
2019-01-26 14:00:00 18.7 4 Oeste 9 Sudoeste 0 -- -- 67
2019-01-26 13:00:00 18.4 3 Noroeste 9 Sudoeste 0 -- -- 68
2019-01-26 12:00:00 18.8 4 Noroeste 12 Oeste 0 -- -- 65
2019-01-26 11:00:00 20.4 8 Oeste 12 Oeste 0 -- -- 56
2019-01-26 10:00:00 15.7 0 Calma 8 Nordeste 0 -- -- 70
2019-01-26 09:00:00 15 5 Este 11 Este 0 -- -- 64
2019-01-26 08:00:00 14.6 7 Este 11 Este 0 -- -- 64
2019-01-26 07:00:00 13.3 0 Calma 5 Nordeste 0 -- -- 82
2019-01-26 06:00:00 14.4 3 Nordeste 9 Este 0 -- -- 70
2019-01-26 05:00:00 14.6 4 Sudeste 9 Este 0 -- -- 67
2019-01-26 04:00:00 14.9 3 Este 9 Este 0 -- -- 72
2019-01-26 03:00:00 15 6 Este 9 Nordeste 0 -- -- 70
2019-01-26 02:00:00 15.4 4 Este 8 Este 0 -- -- 71
2019-01-26 01:00:00 15.5 0 Calma 8 Este 0 -- -- 74
2019-01-26 00:00:00 16 2 Sur 6 Este 0 -- -- 72
2019-01-25 23:00:00 16.4 3 Este 9 Nordeste 0 -- -- 72
2019-01-25 22:00:00 16.5 3 Norte 14 Nordeste 0 -- -- 75
2019-01-25 21:00:00 17 8 Nordeste 14 Nordeste 0 -- -- 73
2019-01-25 20:00:00 16.7 7 Nordeste 14 Nordeste 0 -- -- 74
2019-01-25 19:00:00 17.2 2 Nordeste 14 Sudoeste 0 -- -- 77
2019-01-25 18:00:00 17.8 5 Oeste 15 Sudoeste 0 -- -- 70
2019-01-25 17:00:00 18.1 10 Sudoeste 18 Oeste 0 -- -- 66
2019-01-25 16:00:00 19.5 10 Sudoeste 19 Sudoeste 0 -- -- 62
2019-01-25 15:00:00 20.2 8 Sudoeste 17 Sudoeste 0 -- -- 58
2019-01-25 14:00:00 20.9 6 Sudoeste 15 Oeste 0 -- -- 55
2019-01-25 13:00:00 21.1 8 Oeste 14 Oeste 0 -- -- 54
2019-01-25 12:00:00 21.1 8 Oeste 15 Oeste 0 -- -- 52
2019-01-25 11:00:00 20.3 6 Oeste 14 Sudoeste 0 -- -- 53
2019-01-25 10:00:00 16.3 2 Sur 4 Sur 0 -- -- 60
2019-01-25 09:00:00 15.2 0 Calma 4 Oeste 0 -- -- 66
2019-01-25 08:00:00 15 0 Calma 3 Nordeste 0 -- -- 65
2019-01-25 07:00:00 15.6 2 Norte 5 Sudeste 0 -- -- 68
2019-01-25 06:00:00 16 0 Calma 4 Norte 0 -- -- 66
2019-01-25 05:00:00 16 0 Calma 4 Este 0 -- -- 63
2019-01-25 04:00:00 15.7 0 Calma 3 Norte 0 -- -- 64
2019-01-25 03:00:00 15.5 0 Calma 6 Nordeste 0 -- -- 60
2019-01-25 02:00:00 16.1 0 Calma 6 Este 0 -- -- 59
2019-01-25 01:00:00 16.7 4 Este 6 Este 0 -- -- 56
2019-01-25 00:00:00 16.5 0 Calma 3 Nordeste 0 -- -- 63
2019-01-24 23:00:00 16.3 2 Nordeste 5 Este 0 -- -- 66
2019-01-24 22:00:00 16.3 4 Este 6 Este 0 -- -- 64
2019-01-24 21:00:00 16.3 2 Nordeste 9 Oeste 0 -- -- 65
2019-01-24 20:00:00 16.9 4 Oeste 16 Oeste 0 -- -- 62
2019-01-24 19:00:00 17.6 6 Norte 14 Norte 0 -- -- 61
2019-01-24 18:00:00 20 6 Oeste 17 Sudoeste 0 -- -- 53
2019-01-24 17:00:00 19.9 7 Oeste 22 Oeste 0 -- -- 56
2019-01-24 16:00:00 18.7 12 Oeste 21 Sudoeste 0 -- -- 60
2019-01-24 15:00:00 19 7 Sudoeste 16 Sudoeste 0 -- -- 58
2019-01-24 14:00:00 18.7 9 Sudoeste 18 Sudoeste 0 -- -- 61
2019-01-24 13:00:00 18.7 6 Sudoeste 12 Oeste 0 -- -- 58
2019-01-24 12:00:00 18.1 5 Oeste 12 Oeste 0 -- -- 61
2019-01-24 11:00:00 17.7 4 Oeste 9 Norte 0 -- -- 57
2019-01-24 10:00:00 16.7 3 Norte 6 Noroeste 0 -- -- 59
2019-01-24 09:00:00 15.6 3 Norte 10 Norte 0 -- -- 61
2019-01-24 08:00:00 14.3 6 Nordeste 11 Norte 0 -- -- 62
2019-01-24 07:00:00 14.2 6 Nordeste 11 Nordeste 0 -- -- 59
2019-01-24 06:00:00 14.7 5 Nordeste 10 Este 0 -- -- 59
2019-01-24 05:00:00 14.5 5 Nordeste 11 Nordeste 0 -- -- 59
2019-01-24 04:00:00 14.5 6 Nordeste 10 Norte 0 -- -- 59
2019-01-24 03:00:00 14.4 6 Nordeste 10 Nordeste 0 -- -- 58
2019-01-24 02:00:00 14.2 3 Nordeste 7 Este 0 -- -- 56
2019-01-24 01:00:00 15.1 0 Calma 5 Nordeste 0 -- -- 54
2019-01-24 00:00:00 15.6 3 Nordeste 5 Nordeste 0 -- -- 53